createdAt,value
2018-12-06T07:11:43.562Z,6.32
2018-12-06T07:14:12.986Z,6.28
2018-12-06T07:19:37.621Z,6.22
2018-12-06T07:22:05.787Z,6.28
2018-12-06T07:24:33.446Z,6.28
2018-12-06T07:27:01.035Z,6.43
2018-12-06T07:29:29.297Z,6.59
2018-12-06T07:31:58.860Z,6.71
2018-12-06T07:34:26.656Z,6.80
2018-12-06T07:36:54.305Z,6.76
2018-12-06T07:39:22.656Z,7.02
2018-12-06T07:41:52.298Z,7.05
2018-12-06T07:44:29.599Z,7.95
2018-12-06T07:46:58.988Z,10.00
2018-12-06T07:49:26.577Z,11.08
2018-12-06T07:51:54.705Z,10.95
2018-12-06T07:54:22.973Z,10.48
2018-12-06T07:56:51.134Z,10.43
2018-12-06T07:59:19.029Z,10.27
2018-12-06T08:01:47.033Z,9.67
2018-12-06T08:04:14.636Z,9.21
2018-12-06T08:06:42.181Z,8.98
2018-12-06T08:09:10.071Z,8.87
2018-12-06T08:11:38.704Z,9.08
2018-12-06T08:14:06.580Z,8.78
2018-12-06T08:16:34.844Z,8.21
2018-12-06T08:19:02.470Z,7.73
2018-12-06T08:21:30.763Z,7.80
2018-12-06T08:23:59.057Z,7.61
2018-12-06T08:26:26.759Z,7.44
2018-12-06T08:28:54.326Z,7.63
2018-12-06T08:31:23.848Z,7.66
2018-12-06T08:33:51.488Z,7.69
2018-12-06T08:36:19.125Z,8.10
2018-12-06T08:38:46.730Z,7.82
2018-12-06T08:41:14.270Z,7.79
2018-12-06T08:43:48.762Z,7.68
2018-12-06T08:46:16.395Z,8.05
2018-12-06T08:48:45.968Z,8.18
2018-12-06T08:51:13.508Z,8.44
2018-12-06T08:53:41.977Z,8.53
2018-12-06T08:56:10.397Z,8.77
2018-12-06T08:58:40.029Z,8.69
2018-12-06T09:01:09.548Z,8.85
2018-12-06T09:03:37.102Z,9.27
2018-12-06T09:06:04.761Z,9.23
2018-12-06T09:08:32.468Z,9.45
2018-12-06T09:11:06.201Z,9.15
2018-12-06T09:13:35.527Z,8.74
2018-12-06T09:16:03.108Z,8.63
2018-12-06T09:18:30.803Z,8.85
2018-12-06T09:20:58.479Z,8.97
2018-12-06T09:23:26.180Z,8.99
2018-12-06T09:25:53.878Z,10.66
2018-12-06T09:28:21.508Z,12.23
2018-12-06T09:30:50.009Z,12.89
2018-12-06T09:33:17.688Z,14.93
2018-12-06T09:35:45.482Z,16.75
2018-12-06T09:38:13.104Z,18.21
2018-12-06T09:40:41.583Z,18.77
2018-12-06T09:43:10.495Z,17.87
2018-12-06T09:45:38.286Z,16.71
2018-12-06T09:48:05.867Z,16.86
2018-12-06T09:50:34.506Z,16.72
2018-12-06T09:53:07.852Z,16.27
2018-12-06T09:55:37.290Z,14.92
2018-12-06T09:58:05.792Z,14.42
2018-12-06T10:00:34.290Z,14.36
2018-12-06T10:03:02.704Z,14.01
2018-12-06T10:05:34.560Z,13.85
2018-12-06T10:08:02.571Z,15.02
2018-12-06T10:10:30.173Z,14.16
2018-12-06T10:13:03.052Z,15.51
2018-12-06T10:15:32.148Z,17.36
2018-12-06T10:17:59.726Z,17.53
2018-12-06T10:20:27.297Z,19.46
2018-12-06T10:22:54.831Z,20.47
2018-12-06T10:25:28.484Z,20.16
2018-12-06T10:27:56.017Z,19.68
2018-12-06T10:30:24.481Z,20.56
2018-12-06T10:32:52.061Z,21.40
2018-12-06T10:38:24.353Z,21.19
2018-12-06T10:41:04.863Z,20.89
2018-12-06T10:43:45.391Z,19.65
2018-12-06T10:46:25.932Z,19.79
2018-12-06T10:49:06.414Z,21.53
2018-12-06T10:51:46.982Z,22.25
2018-12-06T10:54:27.384Z,22.78
2018-12-06T10:56:55.310Z,22.74
2018-12-06T10:59:22.963Z,23.61
2018-12-06T11:01:56.561Z,23.55
2018-12-06T11:04:26.167Z,23.54
2018-12-06T11:06:53.746Z,23.21
2018-12-06T11:09:21.458Z,22.14
2018-12-06T11:11:49.563Z,22.89
2018-12-06T11:14:17.238Z,22.65
2018-12-06T11:16:45.858Z,23.54
2018-12-06T11:19:13.527Z,24.28
2018-12-06T11:21:41.500Z,23.84
2018-12-06T11:24:10.126Z,24.23
2018-12-06T11:26:37.729Z,23.74
2018-12-06T11:29:05.326Z,24.05
2018-12-06T11:31:33.560Z,22.68
2018-12-06T11:34:01.279Z,20.92
2018-12-06T11:36:28.813Z,20.02
2018-12-06T11:38:56.595Z,19.20
2018-12-06T11:41:24.204Z,18.66
2018-12-06T11:43:55.477Z,18.48
2018-12-06T11:46:23.951Z,17.92
2018-12-06T11:48:51.524Z,17.11
2018-12-06T11:51:19.356Z,16.79
2018-12-06T11:53:47.035Z,17.55
2018-12-06T11:56:14.894Z,18.59
2018-12-06T11:58:42.533Z,20.08
2018-12-06T12:01:11.011Z,21.86
2018-12-06T12:03:40.337Z,22.21
2018-12-06T12:06:09.238Z,22.01
2018-12-06T12:08:36.861Z,22.65
2018-12-06T12:11:04.769Z,22.24
2018-12-06T12:13:32.419Z,21.61
2018-12-06T12:16:01.065Z,21.47
2018-12-06T12:18:29.581Z,22.27
2018-12-06T12:20:58.191Z,21.76
2018-12-06T12:23:26.749Z,21.97
2018-12-06T12:25:55.075Z,23.36
2018-12-06T12:28:22.770Z,24.17
2018-12-06T12:30:51.357Z,23.27
2018-12-06T12:33:19.352Z,22.80
2018-12-06T12:35:46.992Z,22.71
2018-12-06T12:38:16.864Z,23.00
2018-12-06T12:40:45.264Z,23.17
2018-12-06T12:43:13.804Z,22.56
2018-12-06T12:45:44.112Z,21.63
2018-12-06T12:48:12.960Z,21.70
2018-12-06T12:50:41.371Z,20.40
2018-12-06T12:53:09.211Z,20.83
2018-12-06T12:55:38.109Z,20.78
2018-12-06T12:58:06.490Z,20.92
2018-12-06T13:00:34.200Z,21.50
2018-12-06T13:03:02.068Z,21.19
2018-12-06T13:05:31.004Z,21.00
2018-12-06T13:07:58.801Z,20.67
2018-12-06T13:10:26.363Z,20.84
2018-12-06T13:12:54.743Z,18.81
2018-12-06T13:15:22.306Z,17.59
2018-12-06T13:17:49.834Z,17.49
2018-12-06T13:20:17.349Z,16.49
2018-12-06T13:22:45.059Z,14.82
2018-12-06T13:25:13.064Z,13.76
2018-12-06T13:27:40.677Z,12.80
2018-12-06T13:30:08.287Z,12.29
2018-12-06T13:32:35.876Z,12.08
2018-12-06T13:35:03.721Z,12.21
2018-12-06T13:37:31.432Z,12.41
2018-12-06T13:39:59.925Z,11.53
2018-12-06T13:42:27.702Z,11.55
2018-12-06T13:45:08.450Z,11.18
2018-12-06T13:47:36.028Z,11.00
2018-12-06T13:50:04.212Z,10.75
2018-12-06T13:52:31.925Z,10.98
2018-12-06T13:55:00.682Z,10.73
2018-12-06T13:57:37.400Z,10.02
2018-12-06T14:00:05.551Z,10.24
2018-12-06T14:02:33.166Z,9.93
2018-12-06T14:13:39.548Z,7.82
2018-12-06T14:16:10.582Z,7.91
2018-12-06T14:21:31.462Z,6.94
2018-12-06T14:23:59.027Z,6.67
2018-12-06T14:26:29.504Z,6.37
2018-12-06T14:28:58.156Z,5.95
2018-12-06T14:31:25.701Z,5.42
2018-12-06T14:33:53.300Z,5.09
2018-12-06T14:36:21.415Z,4.76
2018-12-06T14:38:48.982Z,4.47
2018-12-06T14:41:16.537Z,4.26
2018-12-06T14:43:44.122Z,4.04
2018-12-06T14:46:12.698Z,3.87
2018-12-06T14:48:48.990Z,3.66
2018-12-06T14:51:16.522Z,3.55
2018-12-06T14:53:51.042Z,3.35
2018-12-06T14:56:18.805Z,3.26
2018-12-06T14:58:46.346Z,3.11
2018-12-06T15:01:13.882Z,3.01
2018-12-06T15:03:41.485Z,2.88
2018-12-06T15:06:09.033Z,2.71
2018-12-06T15:08:37.363Z,2.60
2018-12-06T15:11:05.134Z,2.52
2018-12-06T15:13:33.686Z,2.47
2018-12-06T15:16:01.277Z,2.40
2018-12-06T15:18:28.862Z,2.31
2018-12-06T15:20:57.022Z,2.21
2018-12-06T15:23:24.666Z,2.22
2018-12-06T15:25:52.243Z,2.29
2018-12-06T15:28:19.877Z,2.27
2018-12-06T15:30:48.386Z,2.19
2018-12-06T15:33:16.002Z,2.15
2018-12-06T15:35:44.416Z,2.03
2018-12-06T15:38:11.973Z,1.95
2018-12-06T15:40:39.517Z,1.90
2018-12-06T15:43:07.903Z,1.76
2018-12-06T15:45:35.490Z,1.62
2018-12-06T15:48:03.038Z,1.59
2018-12-06T15:50:30.649Z,1.43
2018-12-06T15:52:59.123Z,1.27
2018-12-06T15:55:27.726Z,1.21
2018-12-06T15:57:55.305Z,1.07
2018-12-06T16:00:22.907Z,0.99
2018-12-06T16:02:50.445Z,0.89
2018-12-06T16:05:19.006Z,0.87
2018-12-06T16:07:46.546Z,0.81
2018-12-06T16:10:14.098Z,0.83
2018-12-06T16:12:42.542Z,0.82
2018-12-06T16:15:10.149Z,0.80
2018-12-06T16:17:37.741Z,0.72
2018-12-06T16:20:07.489Z,0.67
2018-12-06T16:22:35.179Z,0.60
2018-12-06T16:25:02.733Z,0.60
2018-12-06T16:27:30.304Z,0.58
2018-12-06T16:29:57.917Z,0.53
2018-12-06T16:32:25.510Z,0.55
2018-12-06T16:34:53.093Z,0.50
2018-12-06T16:37:21.504Z,0.45
2018-12-06T16:39:49.049Z,0.48
2018-12-06T16:42:16.661Z,0.41
2018-12-06T16:44:57.924Z,0.39
2018-12-06T16:47:38.402Z,0.38
2018-12-06T16:50:20.746Z,0.27
2018-12-06T16:53:01.238Z,0.21
2018-12-06T16:55:41.789Z,0.12
2018-12-06T16:58:23.117Z,0.15
2018-12-06T17:01:04.943Z,0.05
2018-12-06T17:03:45.166Z,0.04
2018-12-06T17:06:25.934Z,-0.04
2018-12-06T17:09:05.851Z,-0.22
2018-12-06T17:11:46.366Z,-0.19
2018-12-06T17:14:26.904Z,-0.34
2018-12-06T17:17:07.348Z,-0.37
2018-12-06T17:19:47.744Z,-0.55
2018-12-06T17:22:28.139Z,-0.75
2018-12-06T17:25:09.194Z,-0.76
2018-12-06T17:27:36.829Z,-0.84
2018-12-06T17:30:05.730Z,-0.83
2018-12-06T17:32:33.520Z,-0.81
2018-12-06T17:35:01.141Z,-0.81
2018-12-06T17:37:28.739Z,-0.79
2018-12-06T17:39:56.352Z,-0.92
2018-12-06T17:42:24.036Z,-0.97
2018-12-06T17:44:51.699Z,-1.03
2018-12-06T17:47:19.378Z,-1.14
2018-12-06T17:49:47.006Z,-1.15
2018-12-06T17:52:14.569Z,-1.04
2018-12-06T17:54:42.164Z,-1.23
2018-12-06T17:57:09.726Z,-1.21
2018-12-06T17:59:38.155Z,-1.16
2018-12-06T18:02:05.727Z,-1.22
2018-12-06T18:04:33.724Z,-1.14
2018-12-06T18:07:01.283Z,-1.26
2018-12-06T18:09:28.858Z,-1.21
2018-12-06T18:11:59.268Z,-0.98
2018-12-06T18:14:27.362Z,-0.89
2018-12-06T18:40:41.112Z,-1.67
2018-12-06T18:49:32.795Z,-2.18
2018-12-06T18:52:00.695Z,-2.32
2018-12-06T18:54:28.317Z,-2.35
2018-12-06T18:57:28.127Z,-1.97
2018-12-06T19:00:13.331Z,-1.87
2018-12-06T19:02:52.682Z,-1.87
2018-12-06T19:05:38.433Z,-1.82
2018-12-06T19:08:18.573Z,-1.81
2018-12-06T19:10:46.148Z,-1.83
2018-12-06T19:13:13.696Z,-1.80
2018-12-06T19:15:41.272Z,-1.79
2018-12-06T19:18:21.605Z,-1.79
2018-12-06T19:21:02.024Z,-1.79
2018-12-06T19:23:40.884Z,-1.82
2018-12-06T19:26:20.972Z,-1.98
2018-12-06T19:29:01.509Z,-1.93
2018-12-06T19:31:29.144Z,-1.87
2018-12-06T19:34:09.349Z,-1.95
2018-12-06T19:36:36.917Z,-2.03
2018-12-06T19:42:10.032Z,-1.92
2018-12-06T19:44:50.195Z,-1.93
2018-12-06T19:47:36.426Z,-1.91
2018-12-06T19:50:16.569Z,-1.93
2018-12-06T19:52:57.262Z,-1.97
2018-12-06T19:55:39.033Z,-2.01
2018-12-06T19:58:20.417Z,-2.09
2018-12-06T20:04:02.325Z,-2.23
2018-12-06T20:06:42.765Z,-2.21
2018-12-06T20:12:16.436Z,-2.25
2018-12-06T20:14:56.847Z,-2.27
2018-12-06T20:17:37.329Z,-2.18
2018-12-06T20:20:23.348Z,-2.19
2018-12-06T20:25:31.962Z,-2.33
2018-12-06T20:28:12.308Z,-2.23
2018-12-06T20:30:52.761Z,-2.25
2018-12-06T20:33:33.263Z,-2.10
2018-12-06T20:36:13.722Z,-2.06
2018-12-06T20:39:02.426Z,-2.22
2018-12-06T20:41:29.970Z,-2.14
2018-12-06T20:44:09.940Z,-2.02
2018-12-06T20:46:37.464Z,-2.00
2018-12-06T20:49:16.435Z,-1.95
2018-12-06T20:51:56.342Z,-1.94
2018-12-06T20:54:36.778Z,-1.96
2018-12-06T20:57:17.318Z,-1.93
2018-12-06T20:59:57.580Z,-1.95
2018-12-06T21:02:37.933Z,-1.99
2018-12-06T21:05:05.469Z,-1.99
2018-12-06T21:07:33.042Z,-2.04
2018-12-06T21:10:13.389Z,-1.86
2018-12-06T21:12:52.909Z,-1.72
2018-12-06T22:56:00.770Z,-0.62
2018-12-06T22:58:28.295Z,-0.68
2018-12-06T23:00:55.876Z,-0.76
2018-12-06T23:03:23.391Z,-0.84
2018-12-06T23:14:27.526Z,-1.16
2018-12-06T23:17:04.073Z,-1.30
2018-12-06T23:22:37.143Z,-1.26
2018-12-06T23:25:04.880Z,-1.30
2018-12-06T23:27:44.987Z,-1.35
2018-12-06T23:30:25.454Z,-1.44
2018-12-06T23:33:03.789Z,-1.74
2018-12-06T23:35:31.352Z,-1.95
2018-12-06T23:38:05.150Z,-1.91
2018-12-06T23:40:32.809Z,-1.75
2018-12-06T23:43:00.946Z,-1.82
2018-12-06T23:45:33.271Z,-1.83
2018-12-06T23:51:15.239Z,-1.72
